首页
METAR-TAF:

METAR-TAF

机场 :

布達佩斯李斯特·費倫茨國際機場

布达佩斯, 匈牙利

纬度: 47-26N, 经度: 019-16E, 海拔: 151米

当前天气观测

该预报发布于9分钟前的23:30 UTC
风速1节,风向多变
温度 10°C
湿度 87%
气压 1004 hPa
能见度10公里或以上
1500米以下无云,无积雨云

METAR: LHBP 032330Z VRB01KT CAVOK 10/08 Q1004 NOSIG

时间: 01:39 (23:39 UTC)

预报

该预报发布于6小时和24分钟前的17:15 UTC
预报有效从03日的 18点(UTC)到 04日的 18点(UTC)
风速6节,风向西转西北
能见度10公里或以上
1500米以下无云,无积雨云
成为
从 03日的 22点(UTC)到 03日的 24点(UTC)
风速3节,风向多变
成为
从 04日的 04点(UTC)到 04日的 07点(UTC)
风速6节,风向南转南东
成为
从 04日的 10点(UTC)到 04日的 13点(UTC)
风速10节,风向西南
短暂存在
从 04日的 11点(UTC)到 04日的 17点(UTC)
风速16节,风向西南,有时为28节阵风
能見度: 5000
散云层高于5000英尺, 积雨云.
阵雨, 雷暴, 雨

TAF: LHBP 031715Z 0318/0418 30006KT CAVOK BECMG 0322/0324 VRB03KT BECMG 0404/0407 15006KT BECMG 0410/0413 22010KT TEMPO 0411/0417 23016G28KT 5000 SHRA TSRA SCT050CB

超过4000个机场的气象观测和天气预报(METAR&TAF报告)。

可查询的气象台以黄色和红色小点在地图上表示。

将鼠标移到小点上方,可查看气象台名称。

然后点击查看天气观测和预报。

如需切换地图:点击带黑十字的绿色按钮放大地图;点击带横线的绿色按钮缩小地图;或者点击绿色箭头查看邻近地区的地图。


METAR-TAF: